createdAt,value
2018-05-02T22:13:12.355Z,21.08
2018-05-02T22:15:19.469Z,21.00
2018-05-02T22:17:23.971Z,21.22
2018-05-02T22:19:28.550Z,21.09
2018-05-02T22:21:32.468Z,20.60
2018-05-02T22:23:36.480Z,20.64
2018-05-02T22:25:45.055Z,20.92
2018-05-02T22:27:48.864Z,20.89
2018-05-02T22:29:52.687Z,20.90
2018-05-02T22:31:57.214Z,21.08
2018-05-02T22:34:01.041Z,21.05
2018-05-02T22:36:05.224Z,21.18
2018-05-02T22:38:10.475Z,21.18
2018-05-02T22:40:15.047Z,21.24
2018-05-02T22:42:21.043Z,21.30
2018-05-02T22:44:26.239Z,21.30
2018-05-02T22:46:30.096Z,21.31
2018-05-02T22:48:33.990Z,21.34
2018-05-02T22:50:38.056Z,21.33
2018-05-02T22:52:44.457Z,21.18
2018-05-02T22:54:48.312Z,21.15
2018-05-02T22:56:52.445Z,21.21
2018-05-02T22:58:56.272Z,21.22
2018-05-02T23:01:00.144Z,21.30
2018-05-02T23:03:05.101Z,21.31
2018-05-02T23:05:10.416Z,21.12
2018-05-02T23:07:15.727Z,21.21
2018-05-02T23:09:21.311Z,21.17
2018-05-02T23:11:26.978Z,21.02
2018-05-02T23:13:30.983Z,20.93
2018-05-02T23:15:35.180Z,20.84
2018-05-02T23:17:40.136Z,21.09
2018-05-02T23:19:44.521Z,21.08
2018-05-02T23:21:48.854Z,20.65
2018-05-02T23:23:52.891Z,20.69
2018-05-02T23:25:57.103Z,20.75
2018-05-02T23:28:01.552Z,20.85
2018-05-02T23:30:06.606Z,20.97
2018-05-02T23:32:14.977Z,21.12
2018-05-02T23:34:21.204Z,21.04
2018-05-02T23:36:27.369Z,21.02
2018-05-02T23:38:31.495Z,20.80
2018-05-02T23:40:36.172Z,20.90
2018-05-02T23:42:41.347Z,20.82
2018-05-02T23:44:45.449Z,20.98
2018-05-02T23:46:49.981Z,20.95
2018-05-02T23:48:54.235Z,20.86
2018-05-02T23:50:58.592Z,21.01
2018-05-02T23:53:02.940Z,20.63
2018-05-02T23:55:08.142Z,20.70
2018-05-02T23:57:12.840Z,20.88
2018-05-02T23:59:18.453Z,20.73
